Time;durP1;ratioP1;P1;durP2;ratioP2;P2;SDS_P1;SDS_P2;PMS_P1;PMS_P2;Temp;Humidity;BMP_temperature;BMP_pressure;BME280_temperature;BME280_humidity;BME280_pressure;Samples;Min_cycle;Max_cycle;Signal;HPM_P1;HPM_P2
2022/10/04 00:00:36;;;;;;;12.98;6.38;;;;;;;4.85;100.00;98089.94;5025937;28;20049;-61
2022/10/04 00:03:10;;;;;;;12.43;6.30;;;;;;;5.04;100.00;98088.41;5024861;28;20045;-62
2022/10/04 00:05:39;;;;;;;10.98;5.80;;;;;;;5.08;100.00;98081.63;5025993;28;20041;-62
2022/10/04 00:08:41;;;;;;;9.60;5.82;;;;;;;5.18;100.00;98079.41;5026429;28;20116;-62
2022/10/04 00:11:17;;;;;;;10.50;6.18;;;;;;;5.02;100.00;98077.06;5024315;28;20228;-63
2022/10/04 00:13:52;;;;;;;13.50;5.85;;;;;;;5.04;100.00;98078.50;5026602;28;20033;-62
2022/10/04 00:16:27;;;;;;;11.77;6.03;;;;;;;5.01;100.00;98081.59;5025333;28;20596;-62
2022/10/04 00:19:21;;;;;;;10.48;5.85;;;;;;;5.07;100.00;98080.81;5025891;28;20208;-62
2022/10/04 00:21:51;;;;;;;10.40;6.60;;;;;;;5.12;100.00;98074.00;5025201;28;20112;-62
2022/10/04 00:24:26;;;;;;;12.95;6.10;;;;;;;5.03;100.00;98073.34;5025478;28;20041;-62
2022/10/04 00:27:19;;;;;;;13.55;7.13;;;;;;;5.14;100.00;98072.78;5025905;28;20045;-62
2022/10/04 00:30:21;;;;;;;12.05;6.32;;;;;;;5.21;100.00;98064.75;5025320;28;20400;-62
2022/10/04 00:33:02;;;;;;;12.47;6.40;;;;;;;5.16;100.00;98068.03;5024356;28;20133;-61
2022/10/04 00:35:28;;;;;;;15.52;7.18;;;;;;;5.16;100.00;98067.22;5023513;28;20041;-62
2022/10/04 00:37:54;;;;;;;12.30;6.20;;;;;;;5.08;100.00;98062.81;5025676;28;20484;-62
2022/10/04 00:40:23;;;;;;;11.13;6.25;;;;;;;5.05;100.00;98057.88;5025394;28;20052;-62
2022/10/04 00:42:57;;;;;;;16.25;6.03;;;;;;;4.98;100.00;98052.47;5025322;28;20304;-62
2022/10/04 00:45:32;;;;;;;15.65;6.20;;;;;;;4.90;100.00;98055.31;5026027;28;20109;-62
2022/10/04 00:48:27;;;;;;;9.27;5.72;;;;;;;4.95;100.00;98061.72;5025520;28;20054;-61
2022/10/04 00:51:11;;;;;;;11.20;6.85;;;;;;;5.00;100.00;98055.78;5024966;28;20087;-61
2022/10/04 00:54:09;;;;;;;8.68;5.35;;;;;;;5.04;100.00;98054.34;5025089;28;20128;-61
2022/10/04 00:56:50;;;;;;;14.27;6.03;;;;;;;4.94;100.00;98061.94;5024176;28;20522;-63
2022/10/04 01:00:02;;;;;;;15.25;5.97;;;;;;;4.69;100.00;98055.19;5018064;28;20045;-60
2022/10/04 01:02:28;;;;;;;;;;;;;;;4.76;100.00;98051.72;5013358;28;20064;-62
2022/10/04 01:05:01;;;;;;;13.13;6.38;;;;;;;4.79;100.00;98057.53;5025016;28;19971;-62
2022/10/04 01:07:55;;;;;;;14.18;6.55;;;;;;;4.68;100.00;98053.53;5025814;28;20037;-61
2022/10/04 01:10:31;;;;;;;12.18;5.78;;;;;;;4.58;100.00;98055.75;5025775;28;20124;-62
2022/10/04 01:13:12;;;;;;;9.77;6.60;;;;;;;4.45;100.00;98043.06;5024623;28;20048;-62
2022/10/04 01:15:58;;;;;;;14.57;7.20;;;;;;;4.40;100.00;98040.16;5019476;28;20132;-62
2022/10/04 01:18:24;;;;;;;14.45;7.65;;;;;;;4.32;100.00;98038.44;5029463;28;20508;-61
2022/10/04 01:21:16;;;;;;;14.32;7.60;;;;;;;4.24;100.00;98036.72;5017192;28;20499;-61
2022/10/04 01:23:42;;;;;;;12.02;7.75;;;;;;;4.25;100.00;98037.56;5023188;28;20066;-62
2022/10/04 01:26:33;;;;;;;14.48;7.75;;;;;;;4.26;100.00;98037.38;5022715;28;20048;-62
2022/10/04 01:29:25;;;;;;;13.57;8.43;;;;;;;4.21;100.00;98034.44;5023496;28;20037;-61
2022/10/04 01:31:54;;;;;;;14.05;7.50;;;;;;;4.27;100.00;98030.13;5016955;28;20041;-60
2022/10/04 01:34:26;;;;;;;16.17;9.00;;;;;;;4.33;100.00;98029.38;5026088;28;20100;-62
2022/10/04 01:36:55;;;;;;;15.43;8.25;;;;;;;4.38;100.00;98023.41;5027729;28;20458;-62
2022/10/04 01:39:24;;;;;;;16.23;9.77;;;;;;;4.43;100.00;98016.44;5027488;28;20060;-61
2022/10/04 01:42:09;;;;;;;19.30;8.38;;;;;;;4.54;100.00;98023.09;5027561;28;20041;-59
2022/10/04 01:44:48;;;;;;;18.52;8.85;;;;;;;4.76;100.00;98014.97;5028685;28;20128;-61
2022/10/04 01:48:00;;;;;;;19.77;9.10;;;;;;;4.94;100.00;98011.75;5028648;28;20136;-60
2022/10/04 01:50:38;;;;;;;13.80;8.18;;;;;;;4.95;100.00;98009.94;5025656;28;20056;-62
2022/10/04 01:53:13;;;;;;;18.85;8.98;;;;;;;4.76;100.00;98006.13;5028966;28;20533;-62
2022/10/04 01:55:43;;;;;;;17.65;8.95;;;;;;;4.60;100.00;98001.91;5008561;28;20041;-62
2022/10/04 01:58:16;;;;;;;15.70;8.90;;;;;;;4.54;100.00;98001.66;5009532;28;20125;-61
2022/10/04 02:00:50;;;;;;;14.23;8.82;;;;;;;4.50;100.00;97999.56;5022559;28;20045;-61
2022/10/04 02:03:25;;;;;;;14.20;8.95;;;;;;;4.43;100.00;97995.00;5024739;28;20049;-61
2022/10/04 02:05:59;;;;;;;15.35;9.05;;;;;;;4.38;100.00;97989.38;5028723;28;20152;-61
2022/10/04 02:08:29;;;;;;;18.75;9.43;;;;;;;4.38;100.00;97994.75;5028714;28;20392;-59
2022/10/04 02:10:56;;;;;;;17.08;8.25;;;;;;;4.38;100.00;97996.59;5028299;28;20138;-61
2022/10/04 02:13:28;;;;;;;20.92;9.10;;;;;;;4.34;100.00;97996.16;5027466;28;20037;-61
2022/10/04 02:15:56;;;;;;;18.20;8.88;;;;;;;4.28;100.00;97995.09;5028195;28;20060;-62
2022/10/04 02:18:25;;;;;;;14.30;8.43;;;;;;;4.32;100.00;97994.72;5017378;28;20061;-61
2022/10/04 02:20:54;;;;;;;22.52;8.60;;;;;;;4.29;100.00;97993.25;5021760;28;20545;-63
2022/10/04 02:23:21;;;;;;;16.52;7.97;;;;;;;4.29;100.00;97985.22;5027964;28;20121;-60
2022/10/04 02:25:48;;;;;;;15.45;8.40;;;;;;;4.26;100.00;97990.97;5025690;28;20045;-62
2022/10/04 02:28:17;;;;;;;16.10;9.00;;;;;;;4.29;100.00;97991.41;5027868;28;20120;-62
2022/10/04 02:32:56;;;;;;;15.38;8.60;;;;;;;4.25;100.00;97984.78;5019524;28;20528;-61
2022/10/04 02:33:42;;;;;;;;;;;;;;;4.24;100.00;97980.44;5028004;28;20120;-61
2022/10/04 02:36:10;;;;;;;13.48;7.93;;;;;;;4.28;100.00;97975.53;5027030;28;19927;-61
2022/10/04 02:39:06;;;;;;;15.02;8.20;;;;;;;4.32;100.00;97978.63;5027103;28;20579;-62
2022/10/04 02:41:42;;;;;;;18.95;7.82;;;;;;;4.36;100.00;97969.16;5018034;28;20054;-62
2022/10/04 02:44:28;;;;;;;14.13;7.78;;;;;;;4.42;100.00;97973.72;5027477;28;20041;-61
2022/10/04 02:47:06;;;;;;;14.98;7.75;;;;;;;4.49;100.00;97981.84;5026822;28;20045;-61
2022/10/04 02:49:34;;;;;;;14.40;7.60;;;;;;;4.55;100.00;97984.56;5018850;28;20689;-61
2022/10/04 02:52:16;;;;;;;14.02;7.40;;;;;;;4.64;100.00;97987.09;5017266;28;20041;-61
2022/10/04 02:55:06;;;;;;;11.80;7.00;;;;;;;4.52;100.00;97984.09;5027565;28;20092;-62
2022/10/04 02:57:34;;;;;;;11.35;6.63;;;;;;;4.23;100.00;97975.25;5017649;28;20144;-62
2022/10/04 03:00:15;;;;;;;16.60;7.18;;;;;;;4.23;100.00;97968.06;5027198;28;20044;-61
2022/10/04 03:03:02;;;;;;;;;;;;;;;4.19;100.00;97974.00;5025467;28;20116;-61
2022/10/04 03:05:28;;;;;;;16.90;7.93;;;;;;;4.35;100.00;97975.56;5026686;28;19971;-62
2022/10/04 03:07:55;;;;;;;11.93;7.32;;;;;;;4.25;100.00;97967.88;5027453;28;20462;-62
2022/10/04 03:10:22;;;;;;;11.88;6.50;;;;;;;4.43;100.00;97970.03;5024538;28;20045;-60
2022/10/04 03:12:50;;;;;;;11.95;6.45;;;;;;;4.55;100.00;97968.47;5019559;28;20320;-62
2022/10/04 03:15:17;;;;;;;11.30;7.55;;;;;;;4.53;100.00;97956.25;5026810;28;20280;-61
2022/10/04 03:17:43;;;;;;;10.98;6.97;;;;;;;4.37;100.00;97957.41;5027018;28;20049;-62
2022/10/04 03:20:15;;;;;;;10.32;6.97;;;;;;;4.27;100.00;97963.13;5026516;28;20049;-62
2022/10/04 03:22:44;;;;;;;11.07;6.93;;;;;;;3.95;100.00;97963.53;5026315;28;20045;-62
2022/10/04 03:25:28;;;;;;;12.35;6.63;;;;;;;3.95;100.00;97968.06;5010297;28;20046;-61
2022/10/04 03:28:00;;;;;;;13.60;6.85;;;;;;;3.89;100.00;97969.66;5026755;28;20095;-63
2022/10/04 03:30:28;;;;;;;11.52;7.20;;;;;;;4.10;100.00;97963.44;5026494;28;20115;-62
2022/10/04 03:32:55;;;;;;;14.02;7.55;;;;;;;4.19;100.00;97969.47;5024519;28;20041;-62
2022/10/04 03:35:37;;;;;;;15.27;6.97;;;;;;;3.96;100.00;97959.00;5024813;28;20052;-62
2022/10/04 03:38:07;;;;;;;16.77;7.00;;;;;;;3.86;100.00;97957.50;5026400;28;20496;-62
2022/10/04 03:40:37;;;;;;;17.25;6.88;;;;;;;3.97;100.00;97942.72;5016951;28;20041;-61
2022/10/04 03:43:05;;;;;;;13.35;7.53;;;;;;;4.18;100.00;97942.84;5026757;28;20046;-62
2022/10/04 03:45:33;;;;;;;13.10;7.10;;;;;;;4.37;100.00;97944.00;5026228;28;20219;-62
2022/10/04 03:48:06;;;;;;;14.75;7.53;;;;;;;4.42;100.00;97933.50;5026349;28;20043;-62
2022/10/04 03:50:41;;;;;;;14.15;7.90;;;;;;;4.57;100.00;97936.06;5026163;28;20051;-62
2022/10/04 03:53:41;;;;;;;14.68;8.02;;;;;;;4.75;100.00;97940.09;5024789;28;20423;-63
2022/10/04 03:56:19;;;;;;;14.37;7.67;;;;;;;4.80;100.00;97940.31;5012292;28;20041;-62
2022/10/04 03:58:47;;;;;;;12.75;7.38;;;;;;;4.85;100.00;97942.38;5025471;28;20292;-62
2022/10/04 04:01:40;;;;;;;17.58;8.38;;;;;;;4.90;100.00;97937.25;5022056;28;20656;-62
2022/10/04 04:04:24;;;;;;;16.08;7.97;;;;;;;5.03;100.00;97941.81;5019399;28;20070;-63
2022/10/04 04:07:11;;;;;;;11.35;6.32;;;;;;;5.04;100.00;97943.47;5025988;28;20152;-59
2022/10/04 04:09:42;;;;;;;13.25;6.63;;;;;;;5.10;100.00;97944.50;5024078;28;20056;-62
2022/10/04 04:12:15;;;;;;;10.05;6.70;;;;;;;4.97;100.00;97943.44;5024936;28;20120;-62
2022/10/04 04:14:44;;;;;;;9.82;5.78;;;;;;;4.81;100.00;97940.09;5025132;28;20047;-62
2022/10/04 04:17:28;;;;;;;12.32;6.22;;;;;;;4.84;100.00;97935.34;5018491;28;20100;-62
2022/10/04 04:20:02;;;;;;;15.05;6.28;;;;;;;4.86;100.00;97936.81;5025391;28;20033;-62
2022/10/04 04:22:35;;;;;;;13.38;7.15;;;;;;;4.86;100.00;97936.00;5014577;28;20122;-62
2022/10/04 04:25:07;;;;;;;14.50;7.20;;;;;;;4.85;100.00;97928.94;5026155;28;20045;-61
2022/10/04 04:27:38;;;;;;;12.15;6.38;;;;;;;4.93;100.00;97920.72;5025427;28;20120;-62
2022/10/04 04:30:05;;;;;;;12.23;6.53;;;;;;;4.98;100.00;97930.88;5026084;28;20037;-61
2022/10/04 04:32:37;;;;;;;11.57;6.40;;;;;;;5.01;100.00;97928.59;5025202;28;20116;-60
2022/10/04 04:35:09;;;;;;;11.60;6.70;;;;;;;5.00;100.00;97932.31;5025785;28;20385;-60
2022/10/04 04:37:37;;;;;;;13.23;6.28;;;;;;;5.00;100.00;97935.00;5023962;28;20049;-61
2022/10/04 04:40:23;;;;;;;13.15;7.00;;;;;;;5.15;100.00;97924.09;5026116;28;20128;-62
2022/10/04 04:42:51;;;;;;;11.75;6.82;;;;;;;5.16;100.00;97923.06;5023204;28;20514;-62
2022/10/04 04:45:28;;;;;;;10.88;6.65;;;;;;;5.13;100.00;97933.38;5025666;28;20049;-63
2022/10/04 04:48:00;;;;;;;16.13;8.02;;;;;;;5.13;100.00;97938.75;5024409;28;20034;-63
2022/10/04 04:50:36;;;;;;;12.25;7.15;;;;;;;5.19;100.00;97938.75;5024819;28;20180;-63
2022/10/04 04:53:13;;;;;;;12.07;6.63;;;;;;;5.29;100.00;97945.59;5018096;28;20552;-64
2022/10/04 04:55:47;;;;;;;12.75;7.22;;;;;;;5.32;100.00;97950.56;5023800;28;20152;-63
2022/10/04 04:58:37;;;;;;;11.68;6.70;;;;;;;5.42;100.00;97942.94;5025171;28;20812;-63
2022/10/04 05:01:17;;;;;;;9.90;6.53;;;;;;;5.45;100.00;97949.75;5024690;28;20092;-63
2022/10/04 05:03:43;;;;;;;10.13;6.70;;;;;;;5.43;100.00;97954.50;5024674;28;20463;-63
2022/10/04 05:06:26;;;;;;;10.23;6.55;;;;;;;5.40;100.00;97955.75;5026234;28;20124;-63
2022/10/04 05:08:53;;;;;;;14.38;8.00;;;;;;;5.37;100.00;97966.03;5024685;28;20045;-63
2022/10/04 05:11:23;;;;;;;11.38;6.78;;;;;;;5.36;100.00;97967.09;5028968;28;20555;-64
2022/10/04 05:13:56;;;;;;;13.48;6.55;;;;;;;5.32;100.00;97959.47;5028996;28;20048;-63
2022/10/04 05:16:32;;;;;;;14.00;7.00;;;;;;;5.06;100.00;97957.53;5025302;28;20140;-63
2022/10/04 05:19:11;;;;;;;10.40;6.30;;;;;;;4.97;100.00;97953.38;5024341;28;20053;-63
2022/10/04 05:21:43;;;;;;;12.20;6.10;;;;;;;4.90;100.00;97958.72;5026550;28;20313;-63
2022/10/04 05:24:16;;;;;;;15.32;7.55;;;;;;;4.76;100.00;97966.69;5026353;28;20041;-63
2022/10/04 05:26:43;;;;;;;12.68;7.18;;;;;;;4.86;100.00;97968.19;5026391;28;20044;-62
2022/10/04 05:29:22;;;;;;;11.70;7.07;;;;;;;4.89;100.00;97967.78;5027094;28;20128;-64
2022/10/04 05:32:09;;;;;;;12.13;7.03;;;;;;;4.87;100.00;97962.59;5025295;28;20041;-62
2022/10/04 05:34:41;;;;;;;10.98;6.18;;;;;;;4.81;100.00;97955.38;5025444;28;20049;-64
2022/10/04 05:37:25;;;;;;;;;;;;;;;4.59;100.00;97949.28;5026903;28;20053;-62
2022/10/04 05:39:52;;;;;;;12.07;7.45;;;;;;;4.79;100.00;97960.94;5025542;28;20020;-62
2022/10/04 05:42:23;;;;;;;14.48;7.30;;;;;;;4.88;100.00;97966.97;5025122;28;20049;-62
2022/10/04 05:44:52;;;;;;;11.70;8.20;;;;;;;4.90;100.00;97974.81;5026310;28;20052;-62
2022/10/04 05:47:22;;;;;;;18.45;11.00;;;;;;;4.96;100.00;97971.31;5026653;28;20115;-65
2022/10/04 05:49:53;;;;;;;22.55;10.93;;;;;;;5.07;100.00;97972.59;5026316;28;20505;-62
2022/10/04 05:52:33;;;;;;;11.75;7.55;;;;;;;5.10;100.00;97968.66;5026264;28;20041;-61
2022/10/04 05:55:15;;;;;;;17.27;8.35;;;;;;;5.14;100.00;97970.75;5024791;28;20124;-63
2022/10/04 05:57:49;;;;;;;;;;;;;;;5.11;100.00;97971.16;5024042;28;20412;-63
2022/10/04 06:00:19;;;;;;;11.52;6.70;;;;;;;5.13;100.00;97966.44;5024431;28;19943;-62
2022/10/04 06:02:49;;;;;;;12.90;8.43;;;;;;;5.11;100.00;97973.00;5024358;28;20041;-63
2022/10/04 06:05:25;;;;;;;14.05;7.30;;;;;;;4.95;100.00;97970.47;5025533;28;20041;-64
2022/10/04 06:07:58;;;;;;;12.32;5.78;;;;;;;5.01;100.00;97971.53;5026576;28;20121;-64
2022/10/04 06:10:24;;;;;;;10.00;5.88;;;;;;;5.15;100.00;97971.56;5025200;28;20306;-64
2022/10/04 06:13:13;;;;;;;11.85;6.47;;;;;;;5.26;100.00;97968.31;5024966;28;20091;-63
2022/10/04 06:15:58;;;;;;;10.07;6.38;;;;;;;5.18;100.00;97966.66;5026294;28;20063;-63
2022/10/04 06:18:34;;;;;;;8.68;5.70;;;;;;;5.22;100.00;97975.13;5028322;28;20128;-64
2022/10/04 06:21:14;;;;;;;30.80;17.90;;;;;;;5.24;100.00;97983.81;5026939;28;20037;-63
2022/10/04 06:23:49;;;;;;;10.70;6.30;;;;;;;5.24;100.00;97970.38;5026955;28;20063;-63
2022/10/04 06:26:24;;;;;;;9.68;5.55;;;;;;;5.30;100.00;97969.56;5028480;28;20099;-63
2022/10/04 06:28:58;;;;;;;13.07;6.40;;;;;;;5.48;100.00;97965.47;5028119;28;20521;-63
2022/10/04 06:31:55;;;;;;;9.43;5.68;;;;;;;5.80;100.00;97964.88;5027230;28;20117;-63
2022/10/04 06:34:35;;;;;;;11.15;6.20;;;;;;;6.01;100.00;97955.75;5027033;28;20052;-62
2022/10/04 06:37:10;;;;;;;10.85;6.10;;;;;;;6.08;100.00;97959.31;5024782;28;20041;-63
2022/10/04 06:40:15;;;;;;;17.70;6.75;;;;;;;6.18;100.00;97961.59;5023152;28;20167;-63
2022/10/04 06:42:44;;;;;;;12.57;6.53;;;;;;;6.33;100.00;97955.97;5023636;28;20519;-62
2022/10/04 06:45:27;;;;;;;12.90;6.70;;;;;;;6.59;100.00;97950.72;5024387;28;20570;-62
2022/10/04 06:48:32;;;;;;;12.45;5.55;;;;;;;6.74;100.00;97954.00;5025525;28;20047;-62
2022/10/04 06:51:14;;;;;;;9.27;5.88;;;;;;;6.79;100.00;97955.22;5020195;28;20052;-60
2022/10/04 06:53:59;;;;;;;10.25;5.70;;;;;;;6.90;100.00;97944.59;5023209;28;20132;-59
2022/10/04 06:56:52;;;;;;;9.15;5.40;;;;;;;7.00;100.00;97949.53;5019625;28;20042;-58
2022/10/04 06:59:44;;;;;;;10.40;5.70;;;;;;;7.03;100.00;97948.28;5018346;28;20120;-57
2022/10/04 07:02:16;;;;;;;;;;;;;;;7.10;100.00;97942.84;5018306;28;20045;-58
2022/10/04 07:05:02;;;;;;;12.07;4.80;;;;;;;7.18;100.00;97947.19;5026792;28;19921;-59
2022/10/04 07:07:38;;;;;;;9.77;4.73;;;;;;;7.21;100.00;97950.25;5031677;28;20083;-60
2022/10/04 07:10:16;;;;;;;9.32;5.30;;;;;;;7.27;100.00;97953.97;5017937;28;20296;-60
2022/10/04 07:13:03;;;;;;;14.48;5.43;;;;;;;7.32;100.00;97956.84;5018296;28;20159;-61
2022/10/04 07:15:41;;;;;;;12.65;5.03;;;;;;;7.44;100.00;97956.16;5020187;28;20509;-61
2022/10/04 07:18:14;;;;;;;9.60;5.53;;;;;;;7.49;100.00;97957.13;5023209;28;20065;-60
2022/10/04 07:20:41;;;;;;;8.45;4.82;;;;;;;7.61;100.00;97956.44;5021957;28;20798;-60
2022/10/04 07:23:33;;;;;;;8.63;4.97;;;;;;;7.87;100.00;97955.41;5022909;28;20049;-60
2022/10/04 07:26:06;;;;;;;9.00;4.88;;;;;;;7.98;100.00;97972.75;5021700;28;20050;-60
2022/10/04 07:31:28;;;;;;;9.13;5.07;;;;;;;8.16;100.00;97980.06;5020645;28;20041;-59
2022/10/04 07:34:10;;;;;;;9.52;5.13;;;;;;;8.06;100.00;97983.25;5016258;28;20037;-59
2022/10/04 07:36:52;;;;;;;10.95;5.40;;;;;;;7.90;100.00;97984.66;5008684;28;20074;-61
2022/10/04 07:39:43;;;;;;;9.30;4.68;;;;;;;7.89;100.00;97988.38;5015410;28;20051;-61
2022/10/04 07:42:23;;;;;;;9.00;5.35;;;;;;;7.97;100.00;97997.25;5021590;28;20504;-60
2022/10/04 07:45:04;;;;;;;7.25;5.13;;;;;;;7.98;100.00;98002.41;5018188;28;20055;-61
2022/10/04 07:47:31;;;;;;;11.30;5.28;;;;;;;8.03;100.00;97999.03;5023034;28;20045;-59
2022/10/04 07:49:57;;;;;;;13.43;7.40;;;;;;;8.09;100.00;98000.88;5024428;28;21183;-64
2022/10/04 07:52:37;;;;;;;11.68;6.03;;;;;;;8.14;100.00;98001.03;5023903;28;20042;-61
2022/10/04 07:55:31;;;;;;;11.32;5.32;;;;;;;8.24;100.00;97995.16;5021051;28;20489;-60
2022/10/04 07:58:24;;;;;;;11.95;6.18;;;;;;;8.24;100.00;97987.06;5022151;28;20051;-59
2022/10/04 08:00:58;;;;;;;56.80;34.75;;;;;;;8.47;100.00;97988.28;5022441;28;20129;-61
2022/10/04 08:03:43;;;;;;;173.98;106.43;;;;;;;8.64;100.00;97985.88;5021147;28;20052;-60
2022/10/04 08:06:25;;;;;;;12.27;7.10;;;;;;;8.73;100.00;97989.09;5024278;28;20529;-63
2022/10/04 08:09:10;;;;;;;13.18;5.60;;;;;;;8.78;100.00;97988.41;5025126;28;20045;-61
2022/10/04 08:11:42;;;;;;;12.48;6.25;;;;;;;8.87;100.00;97989.75;5019606;28;20110;-64
2022/10/04 08:14:38;;;;;;;21.65;6.97;;;;;;;8.96;100.00;97984.91;5016287;28;20099;-60
2022/10/04 08:17:23;;;;;;;20.48;6.57;;;;;;;9.07;100.00;97983.31;5017910;28;20059;-60
2022/10/04 08:20:01;;;;;;;13.30;4.93;;;;;;;9.12;100.00;97980.75;5016479;28;20124;-61
2022/10/04 08:22:32;;;;;;;10.02;4.35;;;;;;;9.13;100.00;97978.88;5023763;28;20126;-61
2022/10/04 08:25:25;;;;;;;10.68;4.60;;;;;;;9.22;100.00;97977.50;5023918;28;20124;-61
2022/10/04 08:31:25;;;;;;;10.55;4.30;;;;;;;9.42;99.47;97979.94;5022515;28;20501;-61
2022/10/04 08:34:23;;;;;;;6.93;3.95;;;;;;;9.60;97.25;97978.22;5016725;28;20517;-62
2022/10/04 08:37:02;;;;;;;7.32;3.97;;;;;;;9.58;96.15;97975.75;5018107;28;20137;-61
2022/10/04 08:39:48;;;;;;;7.32;4.07;;;;;;;9.68;97.28;97977.06;5023384;28;20754;-59
2022/10/04 08:43:04;;;;;;;11.48;4.20;;;;;;;9.80;95.45;97977.91;5015548;28;20487;-61
2022/10/04 08:46:03;;;;;;;10.10;4.70;;;;;;;10.01;95.93;97978.44;5014314;28;20065;-61
2022/10/04 08:48:56;;;;;;;15.25;5.15;;;;;;;10.02;95.81;97980.91;5022140;28;20451;-63
2022/10/04 08:51:57;;;;;;;8.15;4.13;;;;;;;10.21;94.00;97980.78;5022580;28;20120;-63
2022/10/04 08:54:42;;;;;;;9.07;4.63;;;;;;;10.24;92.76;97984.91;5019349;28;20129;-63
2022/10/04 08:57:30;;;;;;;9.20;3.97;;;;;;;10.33;92.21;97978.09;5008303;28;20045;-63
2022/10/04 09:00:19;;;;;;;7.95;4.03;;;;;;;10.31;92.58;97984.81;5023680;28;20044;-60
2022/10/04 09:03:19;;;;;;;6.53;3.60;;;;;;;10.49;93.76;97989.31;5023533;28;20045;-61
2022/10/04 09:06:13;;;;;;;8.38;3.80;;;;;;;10.62;91.76;97993.66;5020842;28;20064;-58
2022/10/04 09:08:40;;;;;;;7.40;3.72;;;;;;;10.74;90.89;97985.50;5022148;28;20056;-57
2022/10/04 09:11:43;;;;;;;10.05;4.95;;;;;;;10.97;90.92;97979.22;5023390;28;20141;-55
2022/10/04 09:14:41;;;;;;;7.72;3.70;;;;;;;11.08;89.71;97987.56;5021011;28;20045;-52
2022/10/04 09:17:26;;;;;;;10.07;3.97;;;;;;;11.28;89.46;97987.16;5012201;28;20052;-55
2022/10/04 09:19:55;;;;;;;6.43;3.53;;;;;;;11.45;87.94;97984.47;5022423;28;20045;-56
2022/10/04 09:23:05;;;;;;;8.20;3.63;;;;;;;11.63;87.91;97982.63;5023595;28;20045;-56
2022/10/04 09:25:42;;;;;;;9.95;3.30;;;;;;;11.78;86.89;97976.66;5013076;28;20117;-59
2022/10/04 09:28:27;;;;;;;7.60;3.10;;;;;;;11.68;84.77;97977.28;5023478;28;20063;-60
2022/10/04 09:31:31;;;;;;;5.13;3.08;;;;;;;11.76;84.67;97979.59;5023417;28;20056;-59
2022/10/04 09:34:31;;;;;;;7.97;3.13;;;;;;;11.84;85.35;97975.69;5023234;28;20049;-60
2022/10/04 09:37:25;;;;;;;8.18;3.10;;;;;;;11.97;84.81;97979.97;5023443;28;20501;-59
2022/10/04 09:40:28;;;;;;;9.25;3.80;;;;;;;12.13;85.23;97981.09;5023161;28;20049;-59
2022/10/04 09:43:32;;;;;;;13.15;4.18;;;;;;;12.31;85.47;97976.47;5019048;28;20045;-59
2022/10/04 09:46:02;;;;;;;10.25;5.15;;;;;;;12.38;83.61;97968.94;5022628;28;20049;-60
2022/10/04 09:48:44;;;;;;;11.23;4.07;;;;;;;12.42;84.79;97975.53;5023372;28;20551;-62
2022/10/04 09:51:26;;;;;;;12.23;5.90;;;;;;;12.59;84.39;97970.06;5022911;28;20056;-64
2022/10/04 09:54:09;;;;;;;6.57;4.13;;;;;;;12.61;84.11;97970.63;5018698;28;20136;-60
2022/10/04 09:56:50;;;;;;;10.15;4.70;;;;;;;12.68;85.20;97964.22;5020848;28;20048;-61
2022/10/04 09:59:44;;;;;;;7.60;3.88;;;;;;;12.69;83.48;97969.41;5026243;28;20053;-60
2022/10/04 10:02:37;;;;;;;10.75;3.85;;;;;;;12.64;83.12;97966.59;5020790;28;20046;-62
2022/10/04 10:05:06;;;;;;;11.20;4.18;;;;;;;12.59;84.52;97959.22;5014015;28;20053;-60
2022/10/04 10:07:52;;;;;;;17.25;3.92;;;;;;;12.64;84.25;97960.34;5026109;28;20063;-57
2022/10/04 10:13:39;;;;;;;6.75;3.38;;;;;;;12.78;82.73;97974.41;5025426;28;20045;-61
2022/10/04 10:16:48;;;;;;;7.63;3.13;;;;;;;12.80;83.08;97975.78;5026677;28;20132;-61
2022/10/04 10:19:30;;;;;;;11.25;3.63;;;;;;;12.91;82.28;97970.47;5025204;28;20045;-61
2022/10/04 10:22:27;;;;;;;8.25;3.90;;;;;;;13.00;82.12;97971.66;5025524;28;20129;-62
2022/10/04 10:25:20;;;;;;;13.15;4.00;;;;;;;13.10;81.84;97968.25;5023594;28;20052;-62
2022/10/04 10:28:24;;;;;;;11.98;4.00;;;;;;;13.21;80.35;97963.75;5025791;28;20065;-62
2022/10/04 10:31:07;;;;;;;6.60;2.92;;;;;;;13.29;79.51;97965.19;5025289;28;20168;-62
2022/10/04 10:34:12;;;;;;;5.22;3.45;;;;;;;13.46;77.43;97967.84;5025012;28;20428;-62
2022/10/04 10:37:03;;;;;;;6.20;2.67;;;;;;;13.53;77.55;97968.50;5021875;28;20049;-62
2022/10/04 10:39:38;;;;;;;6.32;2.88;;;;;;;13.54;77.48;97967.41;5025384;28;20318;-62
2022/10/04 10:42:19;;;;;;;5.35;3.08;;;;;;;13.68;77.95;97972.44;5024952;28;20504;-61
2022/10/04 10:45:13;;;;;;;5.93;3.08;;;;;;;13.69;76.70;97969.47;5024217;28;20049;-61
2022/10/04 10:47:58;;;;;;;6.45;3.00;;;;;;;13.82;76.91;97967.41;5020665;28;20053;-61
2022/10/04 10:50:30;;;;;;;10.52;3.03;;;;;;;13.94;76.70;97954.44;5022475;28;20797;-61
2022/10/04 10:53:15;;;;;;;7.32;3.30;;;;;;;14.09;75.49;97951.03;5021713;28;20125;-62
2022/10/04 10:56:12;;;;;;;4.97;2.63;;;;;;;14.19;75.15;97947.53;5022768;28;20120;-56
2022/10/04 10:59:27;;;;;;;6.55;2.70;;;;;;;14.28;73.82;97948.72;5024581;28;20104;-59
2022/10/04 11:02:05;;;;;;;6.35;3.55;;;;;;;14.47;73.66;97951.00;5017437;28;20068;-60
2022/10/04 11:04:53;;;;;;;7.43;2.58;;;;;;;14.64;73.18;97950.84;5022557;28;20053;-59
2022/10/04 11:07:42;;;;;;;8.20;3.42;;;;;;;14.79;72.19;97946.56;5019606;28;20145;-59
2022/10/04 11:10:08;;;;;;;5.05;2.30;;;;;;;14.97;72.22;97947.19;5020634;28;20051;-63
2022/10/04 11:12:46;;;;;;;7.28;3.03;;;;;;;15.11;71.24;97939.31;5020013;28;20042;-60
2022/10/04 11:15:31;;;;;;;9.13;2.55;;;;;;;15.20;69.91;97937.72;5023572;28;20756;-60
2022/10/04 11:18:40;;;;;;;5.22;2.20;;;;;;;15.33;70.65;97931.75;5024585;28;20037;-59
2022/10/04 11:21:24;;;;;;;6.20;2.17;;;;;;;15.37;69.87;97945.66;5024756;28;20055;-63
2022/10/04 11:24:23;;;;;;;4.63;2.05;;;;;;;15.44;70.46;97943.50;5024208;28;20038;-60
2022/10/04 11:27:27;;;;;;;4.93;2.17;;;;;;;15.46;69.52;97938.59;5013877;28;20059;-64
2022/10/04 11:30:13;;;;;;;3.33;1.88;;;;;;;15.56;69.43;97936.97;5023326;28;20095;-64
2022/10/04 11:33:03;;;;;;;3.85;2.35;;;;;;;15.66;69.74;97930.72;5024679;28;20049;-63
2022/10/04 11:35:30;;;;;;;5.18;3.60;;;;;;;15.81;68.83;97921.72;5024706;28;20125;-60
2022/10/04 11:38:23;;;;;;;5.95;2.65;;;;;;;15.93;67.74;97926.91;5023279;28;20128;-61
2022/10/04 11:40:50;;;;;;;7.30;2.22;;;;;;;16.03;67.57;97917.91;5023450;28;20061;-59
2022/10/04 11:43:35;;;;;;;7.95;2.63;;;;;;;16.16;67.55;97922.81;5024495;28;20045;-60
2022/10/04 11:46:44;;;;;;;4.47;2.10;;;;;;;16.28;66.70;97908.06;5024911;28;20469;-59
2022/10/04 11:49:19;;;;;;;6.97;2.03;;;;;;;16.27;66.50;97909.94;5024921;28;20107;-65
2022/10/04 11:52:18;;;;;;;10.02;2.30;;;;;;;16.25;66.53;97902.03;5024803;28;20159;-66
2022/10/04 11:55:20;;;;;;;6.68;2.22;;;;;;;16.27;66.75;97896.28;5026349;28;20112;-65
2022/10/04 11:57:52;;;;;;;5.57;2.50;;;;;;;16.41;67.52;97903.91;5023115;28;20594;-59
2022/10/04 12:00:27;;;;;;;4.25;2.15;;;;;;;16.45;66.39;97896.78;5024023;28;20120;-60
2022/10/04 12:03:29;;;;;;;6.53;2.65;;;;;;;16.37;65.55;97890.00;5025232;28;20129;-59
2022/10/04 12:06:21;;;;;;;6.25;2.20;;;;;;;16.56;65.89;97892.13;5024215;28;20038;-60
2022/10/04 12:09:04;;;;;;;4.18;1.95;;;;;;;16.63;65.84;97900.84;5022270;28;20140;-60
2022/10/04 12:14:43;;;;;;;5.20;2.05;;;;;;;16.89;64.47;97895.28;5025905;28;20730;-62
2022/10/04 12:17:09;;;;;;;6.68;2.65;;;;;;;16.91;63.96;97893.06;5024983;28;20055;-64
2022/10/04 12:20:11;;;;;;;6.68;1.60;;;;;;;16.88;64.01;97888.97;5025653;28;20804;-61
2022/10/04 12:22:59;;;;;;;4.13;1.80;;;;;;;16.92;63.12;97894.72;5024934;28;20524;-64
2022/10/04 12:25:34;;;;;;;4.43;2.08;;;;;;;16.95;63.26;97885.13;5025433;28;20132;-60
2022/10/04 12:28:15;;;;;;;3.90;1.60;;;;;;;16.92;62.66;97886.50;5022783;28;20067;-64
2022/10/04 12:30:45;;;;;;;3.42;1.75;;;;;;;16.98;62.37;97884.53;5021601;28;20049;-65
2022/10/04 12:33:22;;;;;;;2.67;1.50;;;;;;;17.02;62.13;97888.34;5023680;28;20504;-64
2022/10/04 12:36:15;;;;;;;3.03;1.50;;;;;;;17.11;60.80;97888.63;5023077;28;20128;-65
2022/10/04 12:39:13;;;;;;;3.88;1.58;;;;;;;17.22;60.88;97881.16;5021591;28;20053;-60
2022/10/04 12:42:09;;;;;;;4.63;1.52;;;;;;;17.26;61.75;97882.25;5022013;28;20058;-63
2022/10/04 12:44:45;;;;;;;2.53;1.30;;;;;;;17.32;61.28;97880.28;5016474;28;20049;-65